sensor_id;sensor_type;location;lat;lon;timestamp;P1;durP1;ratioP1;P2;durP2;ratioP2
68792;SDS011;55778;54.346;10.210;2023-10-19T00:00:45;5.40;;;2.40;;
68792;SDS011;55778;54.346;10.210;2023-10-19T00:03:13;4.65;;;2.50;;
68792;SDS011;55778;54.346;10.210;2023-10-19T00:05:39;3.85;;;2.50;;
68792;SDS011;55778;54.346;10.210;2023-10-19T00:08:05;6.57;;;3.03;;
68792;SDS011;55778;54.346;10.210;2023-10-19T00:10:48;3.65;;;2.40;;
68792;SDS011;55778;54.346;10.210;2023-10-19T00:13:30;7.13;;;2.80;;
68792;SDS011;55778;54.346;10.210;2023-10-19T00:15:56;5.85;;;2.92;;
68792;SDS011;55778;54.346;10.210;2023-10-19T00:18:23;4.75;;;2.65;;
68792;SDS011;55778;54.346;10.210;2023-10-19T00:20:55;3.78;;;2.60;;
68792;SDS011;55778;54.346;10.210;2023-10-19T00:23:36;5.47;;;2.53;;
68792;SDS011;55778;54.346;10.210;2023-10-19T00:26:05;5.18;;;2.92;;
68792;SDS011;55778;54.346;10.210;2023-10-19T00:28:34;6.40;;;2.97;;
68792;SDS011;55778;54.346;10.210;2023-10-19T00:31:03;6.70;;;2.90;;
68792;SDS011;55778;54.346;10.210;2023-10-19T00:33:29;4.43;;;3.00;;
68792;SDS011;55778;54.346;10.210;2023-10-19T00:35:59;5.57;;;2.70;;
68792;SDS011;55778;54.346;10.210;2023-10-19T00:38:31;5.70;;;2.50;;
68792;SDS011;55778;54.346;10.210;2023-10-19T00:41:03;5.03;;;2.97;;
68792;SDS011;55778;54.346;10.210;2023-10-19T00:43:36;6.45;;;2.83;;
68792;SDS011;55778;54.346;10.210;2023-10-19T00:46:08;4.53;;;2.90;;
68792;SDS011;55778;54.346;10.210;2023-10-19T00:48:40;6.15;;;2.97;;
68792;SDS011;55778;54.346;10.210;2023-10-19T00:51:13;7.97;;;2.95;;
68792;SDS011;55778;54.346;10.210;2023-10-19T00:56:35;4.97;;;2.70;;
68792;SDS011;55778;54.346;10.210;2023-10-19T00:59:01;7.65;;;3.30;;
68792;SDS011;55778;54.346;10.210;2023-10-19T01:01:42;7.78;;;3.20;;
68792;SDS011;55778;54.346;10.210;2023-10-19T01:04:13;7.28;;;3.25;;
68792;SDS011;55778;54.346;10.210;2023-10-19T01:06:44;7.97;;;3.42;;
68792;SDS011;55778;54.346;10.210;2023-10-19T01:09:12;7.47;;;3.80;;
68792;SDS011;55778;54.346;10.210;2023-10-19T01:11:40;6.95;;;3.28;;
68792;SDS011;55778;54.346;10.210;2023-10-19T01:14:21;7.82;;;3.65;;
68792;SDS011;55778;54.346;10.210;2023-10-19T01:16:47;8.70;;;3.45;;
68792;SDS011;55778;54.346;10.210;2023-10-19T01:19:14;7.05;;;3.30;;
68792;SDS011;55778;54.346;10.210;2023-10-19T01:21:43;7.05;;;3.40;;
68792;SDS011;55778;54.346;10.210;2023-10-19T01:24:15;5.38;;;2.97;;
68792;SDS011;55778;54.346;10.210;2023-10-19T01:26:42;6.45;;;3.03;;
68792;SDS011;55778;54.346;10.210;2023-10-19T01:29:07;5.90;;;3.38;;
68792;SDS011;55778;54.346;10.210;2023-10-19T01:31:41;7.63;;;3.20;;
68792;SDS011;55778;54.346;10.210;2023-10-19T01:34:30;6.65;;;3.13;;
68792;SDS011;55778;54.346;10.210;2023-10-19T01:36:55;6.35;;;3.10;;
68792;SDS011;55778;54.346;10.210;2023-10-19T01:39:21;6.28;;;2.90;;
68792;SDS011;55778;54.346;10.210;2023-10-19T01:41:46;9.82;;;3.00;;
68792;SDS011;55778;54.346;10.210;2023-10-19T01:44:15;5.78;;;3.00;;
68792;SDS011;55778;54.346;10.210;2023-10-19T01:46:41;6.97;;;3.55;;
68792;SDS011;55778;54.346;10.210;2023-10-19T01:49:09;10.35;;;3.70;;
68792;SDS011;55778;54.346;10.210;2023-10-19T01:51:34;8.48;;;3.50;;
68792;SDS011;55778;54.346;10.210;2023-10-19T01:54:03;5.80;;;3.30;;
68792;SDS011;55778;54.346;10.210;2023-10-19T01:56:31;8.52;;;3.60;;
68792;SDS011;55778;54.346;10.210;2023-10-19T01:59:00;9.18;;;3.60;;
68792;SDS011;55778;54.346;10.210;2023-10-19T02:01:26;8.35;;;4.55;;
68792;SDS011;55778;54.346;10.210;2023-10-19T02:03:51;10.18;;;4.20;;
68792;SDS011;55778;54.346;10.210;2023-10-19T02:06:19;7.18;;;3.83;;
68792;SDS011;55778;54.346;10.210;2023-10-19T02:09:04;8.15;;;4.18;;
68792;SDS011;55778;54.346;10.210;2023-10-19T02:11:52;7.50;;;3.88;;
68792;SDS011;55778;54.346;10.210;2023-10-19T02:14:21;8.00;;;3.92;;
68792;SDS011;55778;54.346;10.210;2023-10-19T02:16:47;7.47;;;3.70;;
68792;SDS011;55778;54.346;10.210;2023-10-19T02:19:21;7.68;;;3.80;;
68792;SDS011;55778;54.346;10.210;2023-10-19T02:21:51;6.53;;;3.70;;
68792;SDS011;55778;54.346;10.210;2023-10-19T02:24:17;8.73;;;4.00;;
68792;SDS011;55778;54.346;10.210;2023-10-19T02:26:44;7.57;;;4.10;;
68792;SDS011;55778;54.346;10.210;2023-10-19T02:29:11;6.88;;;4.10;;
68792;SDS011;55778;54.346;10.210;2023-10-19T02:31:41;9.13;;;4.90;;
68792;SDS011;55778;54.346;10.210;2023-10-19T02:34:08;8.73;;;4.60;;
68792;SDS011;55778;54.346;10.210;2023-10-19T02:36:35;8.68;;;4.20;;
68792;SDS011;55778;54.346;10.210;2023-10-19T02:39:06;8.50;;;4.47;;
68792;SDS011;55778;54.346;10.210;2023-10-19T02:41:39;10.88;;;4.82;;
68792;SDS011;55778;54.346;10.210;2023-10-19T02:44:09;10.30;;;4.70;;
68792;SDS011;55778;54.346;10.210;2023-10-19T02:46:48;10.35;;;5.00;;
68792;SDS011;55778;54.346;10.210;2023-10-19T02:49:16;8.23;;;4.55;;
68792;SDS011;55778;54.346;10.210;2023-10-19T02:51:46;10.73;;;5.40;;
68792;SDS011;55778;54.346;10.210;2023-10-19T02:54:13;9.68;;;4.82;;
68792;SDS011;55778;54.346;10.210;2023-10-19T02:56:45;12.30;;;5.30;;
68792;SDS011;55778;54.346;10.210;2023-10-19T03:01:41;10.60;;;5.05;;
68792;SDS011;55778;54.346;10.210;2023-10-19T03:04:09;10.15;;;5.35;;
68792;SDS011;55778;54.346;10.210;2023-10-19T03:06:37;11.77;;;5.07;;
68792;SDS011;55778;54.346;10.210;2023-10-19T03:09:05;10.32;;;5.00;;
68792;SDS011;55778;54.346;10.210;2023-10-19T03:11:41;10.70;;;5.10;;
68792;SDS011;55778;54.346;10.210;2023-10-19T03:14:08;12.85;;;5.97;;
68792;SDS011;55778;54.346;10.210;2023-10-19T03:16:35;9.63;;;5.32;;
68792;SDS011;55778;54.346;10.210;2023-10-19T03:19:01;10.88;;;5.30;;
68792;SDS011;55778;54.346;10.210;2023-10-19T03:21:27;9.15;;;5.07;;
68792;SDS011;55778;54.346;10.210;2023-10-19T03:23:55;10.48;;;5.25;;
68792;SDS011;55778;54.346;10.210;2023-10-19T03:26:22;11.30;;;5.32;;
68792;SDS011;55778;54.346;10.210;2023-10-19T03:28:52;12.10;;;5.90;;
68792;SDS011;55778;54.346;10.210;2023-10-19T03:31:22;12.13;;;5.18;;
68792;SDS011;55778;54.346;10.210;2023-10-19T03:33:50;11.27;;;5.70;;
68792;SDS011;55778;54.346;10.210;2023-10-19T03:36:20;10.45;;;5.13;;
68792;SDS011;55778;54.346;10.210;2023-10-19T03:38:49;9.57;;;5.07;;
68792;SDS011;55778;54.346;10.210;2023-10-19T03:41:19;12.68;;;5.65;;
68792;SDS011;55778;54.346;10.210;2023-10-19T03:43:54;12.68;;;5.75;;
68792;SDS011;55778;54.346;10.210;2023-10-19T03:46:22;10.32;;;5.45;;
68792;SDS011;55778;54.346;10.210;2023-10-19T03:48:53;13.38;;;6.20;;
68792;SDS011;55778;54.346;10.210;2023-10-19T03:51:29;13.57;;;5.35;;
68792;SDS011;55778;54.346;10.210;2023-10-19T03:54:05;14.25;;;5.10;;
68792;SDS011;55778;54.346;10.210;2023-10-19T03:56:45;11.55;;;5.40;;
68792;SDS011;55778;54.346;10.210;2023-10-19T03:59:13;10.85;;;5.55;;
68792;SDS011;55778;54.346;10.210;2023-10-19T04:01:38;10.32;;;5.38;;
68792;SDS011;55778;54.346;10.210;2023-10-19T04:04:04;10.80;;;4.60;;
68792;SDS011;55778;54.346;10.210;2023-10-19T04:06:30;10.90;;;5.10;;
68792;SDS011;55778;54.346;10.210;2023-10-19T04:08:55;11.30;;;5.60;;
68792;SDS011;55778;54.346;10.210;2023-10-19T04:11:21;10.30;;;5.00;;
68792;SDS011;55778;54.346;10.210;2023-10-19T04:13:57;10.00;;;4.60;;
68792;SDS011;55778;54.346;10.210;2023-10-19T04:16:24;9.07;;;5.15;;
68792;SDS011;55778;54.346;10.210;2023-10-19T04:18:49;10.63;;;4.78;;
68792;SDS011;55778;54.346;10.210;2023-10-19T04:21:15;11.48;;;5.45;;
68792;SDS011;55778;54.346;10.210;2023-10-19T04:23:40;13.93;;;6.05;;
68792;SDS011;55778;54.346;10.210;2023-10-19T04:26:06;9.43;;;5.00;;
68792;SDS011;55778;54.346;10.210;2023-10-19T04:28:40;12.80;;;4.63;;
68792;SDS011;55778;54.346;10.210;2023-10-19T04:31:15;9.32;;;4.80;;
68792;SDS011;55778;54.346;10.210;2023-10-19T04:33:42;10.48;;;4.70;;
68792;SDS011;55778;54.346;10.210;2023-10-19T04:36:10;10.40;;;4.87;;
68792;SDS011;55778;54.346;10.210;2023-10-19T04:38:36;12.90;;;5.43;;
68792;SDS011;55778;54.346;10.210;2023-10-19T04:41:06;9.93;;;4.72;;
68792;SDS011;55778;54.346;10.210;2023-10-19T04:43:35;9.00;;;4.88;;
68792;SDS011;55778;54.346;10.210;2023-10-19T04:46:06;10.55;;;5.10;;
68792;SDS011;55778;54.346;10.210;2023-10-19T04:48:35;11.73;;;5.15;;
68792;SDS011;55778;54.346;10.210;2023-10-19T04:51:01;11.77;;;5.50;;
68792;SDS011;55778;54.346;10.210;2023-10-19T04:53:28;9.73;;;5.25;;
68792;SDS011;55778;54.346;10.210;2023-10-19T04:55:54;10.38;;;4.80;;
68792;SDS011;55778;54.346;10.210;2023-10-19T04:58:19;12.13;;;5.85;;
68792;SDS011;55778;54.346;10.210;2023-10-19T05:00:44;13.02;;;5.18;;
68792;SDS011;55778;54.346;10.210;2023-10-19T05:03:10;9.93;;;5.45;;
68792;SDS011;55778;54.346;10.210;2023-10-19T05:05:37;12.13;;;5.75;;
68792;SDS011;55778;54.346;10.210;2023-10-19T05:08:03;10.80;;;5.38;;
68792;SDS011;55778;54.346;10.210;2023-10-19T05:10:29;11.35;;;5.65;;
68792;SDS011;55778;54.346;10.210;2023-10-19T05:12:54;12.07;;;5.40;;
68792;SDS011;55778;54.346;10.210;2023-10-19T05:15:20;24.45;;;6.22;;
68792;SDS011;55778;54.346;10.210;2023-10-19T05:17:45;10.43;;;5.38;;
68792;SDS011;55778;54.346;10.210;2023-10-19T05:20:11;10.85;;;5.47;;
68792;SDS011;55778;54.346;10.210;2023-10-19T05:22:36;11.02;;;4.80;;
68792;SDS011;55778;54.346;10.210;2023-10-19T05:25:02;10.50;;;4.82;;
68792;SDS011;55778;54.346;10.210;2023-10-19T05:27:28;9.65;;;4.80;;
68792;SDS011;55778;54.346;10.210;2023-10-19T05:29:54;9.23;;;5.00;;
68792;SDS011;55778;54.346;10.210;2023-10-19T05:32:20;8.30;;;4.93;;
68792;SDS011;55778;54.346;10.210;2023-10-19T05:34:46;10.32;;;4.68;;
68792;SDS011;55778;54.346;10.210;2023-10-19T05:37:12;11.98;;;4.60;;
68792;SDS011;55778;54.346;10.210;2023-10-19T05:39:37;9.80;;;4.78;;
68792;SDS011;55778;54.346;10.210;2023-10-19T05:42:03;11.13;;;5.07;;
68792;SDS011;55778;54.346;10.210;2023-10-19T05:44:29;8.43;;;4.80;;
68792;SDS011;55778;54.346;10.210;2023-10-19T05:46:55;9.57;;;4.95;;
68792;SDS011;55778;54.346;10.210;2023-10-19T05:49:21;10.68;;;5.10;;
68792;SDS011;55778;54.346;10.210;2023-10-19T05:51:47;9.10;;;4.68;;
68792;SDS011;55778;54.346;10.210;2023-10-19T05:54:13;10.10;;;4.50;;
68792;SDS011;55778;54.346;10.210;2023-10-19T05:56:38;9.65;;;4.20;;
68792;SDS011;55778;54.346;10.210;2023-10-19T05:59:04;8.15;;;4.10;;
68792;SDS011;55778;54.346;10.210;2023-10-19T06:01:31;10.57;;;4.80;;
68792;SDS011;55778;54.346;10.210;2023-10-19T06:03:57;7.70;;;4.30;;
68792;SDS011;55778;54.346;10.210;2023-10-19T06:06:22;9.10;;;4.15;;
68792;SDS011;55778;54.346;10.210;2023-10-19T06:08:48;8.02;;;3.97;;
68792;SDS011;55778;54.346;10.210;2023-10-19T06:11:14;10.57;;;4.20;;
68792;SDS011;55778;54.346;10.210;2023-10-19T06:13:40;11.68;;;4.53;;
68792;SDS011;55778;54.346;10.210;2023-10-19T06:16:05;10.48;;;4.10;;
68792;SDS011;55778;54.346;10.210;2023-10-19T06:18:31;7.65;;;3.72;;
68792;SDS011;55778;54.346;10.210;2023-10-19T06:20:56;10.27;;;4.13;;
68792;SDS011;55778;54.346;10.210;2023-10-19T06:23:22;8.23;;;4.43;;
68792;SDS011;55778;54.346;10.210;2023-10-19T06:25:47;6.97;;;3.67;;
68792;SDS011;55778;54.346;10.210;2023-10-19T06:28:13;9.55;;;4.05;;
68792;SDS011;55778;54.346;10.210;2023-10-19T06:30:39;7.03;;;3.90;;
68792;SDS011;55778;54.346;10.210;2023-10-19T06:33:07;7.90;;;3.70;;
68792;SDS011;55778;54.346;10.210;2023-10-19T06:35:33;7.03;;;3.78;;
68792;SDS011;55778;54.346;10.210;2023-10-19T06:38:01;7.25;;;4.03;;
68792;SDS011;55778;54.346;10.210;2023-10-19T06:40:28;9.75;;;4.25;;
68792;SDS011;55778;54.346;10.210;2023-10-19T06:42:57;8.63;;;4.13;;
68792;SDS011;55778;54.346;10.210;2023-10-19T06:45:24;7.85;;;4.18;;
68792;SDS011;55778;54.346;10.210;2023-10-19T06:47:54;7.60;;;3.65;;
68792;SDS011;55778;54.346;10.210;2023-10-19T06:50:21;8.70;;;4.40;;
68792;SDS011;55778;54.346;10.210;2023-10-19T06:52:47;7.35;;;3.80;;
68792;SDS011;55778;54.346;10.210;2023-10-19T06:55:14;8.85;;;4.22;;
68792;SDS011;55778;54.346;10.210;2023-10-19T06:57:44;9.23;;;3.72;;
68792;SDS011;55778;54.346;10.210;2023-10-19T07:00:12;9.05;;;4.57;;
68792;SDS011;55778;54.346;10.210;2023-10-19T07:02:40;10.30;;;4.13;;
68792;SDS011;55778;54.346;10.210;2023-10-19T07:05:07;8.77;;;4.25;;
68792;SDS011;55778;54.346;10.210;2023-10-19T07:07:35;9.57;;;4.40;;
68792;SDS011;55778;54.346;10.210;2023-10-19T07:10:02;10.07;;;4.55;;
68792;SDS011;55778;54.346;10.210;2023-10-19T07:12:28;11.23;;;4.60;;
68792;SDS011;55778;54.346;10.210;2023-10-19T07:14:54;9.65;;;4.50;;
68792;SDS011;55778;54.346;10.210;2023-10-19T07:17:19;9.77;;;4.57;;
68792;SDS011;55778;54.346;10.210;2023-10-19T07:19:45;12.77;;;4.93;;
68792;SDS011;55778;54.346;10.210;2023-10-19T07:22:13;7.72;;;4.25;;
68792;SDS011;55778;54.346;10.210;2023-10-19T07:24:40;9.35;;;4.30;;
68792;SDS011;55778;54.346;10.210;2023-10-19T07:27:05;7.97;;;4.43;;
68792;SDS011;55778;54.346;10.210;2023-10-19T07:29:33;12.07;;;3.78;;
68792;SDS011;55778;54.346;10.210;2023-10-19T07:32:01;10.23;;;4.57;;
68792;SDS011;55778;54.346;10.210;2023-10-19T07:34:30;9.70;;;3.92;;
68792;SDS011;55778;54.346;10.210;2023-10-19T07:36:58;9.68;;;4.85;;
68792;SDS011;55778;54.346;10.210;2023-10-19T07:39:24;10.88;;;4.88;;
68792;SDS011;55778;54.346;10.210;2023-10-19T07:41:51;9.27;;;4.60;;
68792;SDS011;55778;54.346;10.210;2023-10-19T07:44:18;10.38;;;4.30;;
68792;SDS011;55778;54.346;10.210;2023-10-19T07:46:43;9.18;;;4.05;;
68792;SDS011;55778;54.346;10.210;2023-10-19T07:49:09;8.07;;;4.30;;
68792;SDS011;55778;54.346;10.210;2023-10-19T07:51:39;9.88;;;4.90;;
68792;SDS011;55778;54.346;10.210;2023-10-19T07:54:06;9.48;;;4.18;;
68792;SDS011;55778;54.346;10.210;2023-10-19T07:56:32;10.00;;;4.20;;
68792;SDS011;55778;54.346;10.210;2023-10-19T07:58:59;13.82;;;4.20;;
68792;SDS011;55778;54.346;10.210;2023-10-19T08:01:24;10.82;;;4.28;;
68792;SDS011;55778;54.346;10.210;2023-10-19T08:03:50;7.80;;;3.85;;
68792;SDS011;55778;54.346;10.210;2023-10-19T08:06:16;7.47;;;4.05;;
68792;SDS011;55778;54.346;10.210;2023-10-19T08:08:42;9.18;;;4.18;;
68792;SDS011;55778;54.346;10.210;2023-10-19T08:11:07;9.10;;;4.00;;
68792;SDS011;55778;54.346;10.210;2023-10-19T08:13:33;8.05;;;4.20;;
68792;SDS011;55778;54.346;10.210;2023-10-19T08:15:59;9.15;;;4.10;;
68792;SDS011;55778;54.346;10.210;2023-10-19T08:18:24;6.70;;;3.80;;
68792;SDS011;55778;54.346;10.210;2023-10-19T08:20:50;11.02;;;4.18;;
68792;SDS011;55778;54.346;10.210;2023-10-19T08:23:15;9.73;;;4.13;;
68792;SDS011;55778;54.346;10.210;2023-10-19T08:25:48;8.07;;;4.25;;
68792;SDS011;55778;54.346;10.210;2023-10-19T08:28:15;9.75;;;4.13;;
68792;SDS011;55778;54.346;10.210;2023-10-19T08:30:41;7.25;;;3.92;;
68792;SDS011;55778;54.346;10.210;2023-10-19T08:33:07;7.50;;;3.80;;
68792;SDS011;55778;54.346;10.210;2023-10-19T08:35:34;8.60;;;4.13;;
68792;SDS011;55778;54.346;10.210;2023-10-19T08:38:00;8.10;;;4.47;;
68792;SDS011;55778;54.346;10.210;2023-10-19T08:40:29;9.10;;;3.78;;
68792;SDS011;55778;54.346;10.210;2023-10-19T08:42:54;10.73;;;4.32;;
68792;SDS011;55778;54.346;10.210;2023-10-19T08:45:20;8.90;;;4.57;;
68792;SDS011;55778;54.346;10.210;2023-10-19T08:47:53;9.02;;;3.90;;
68792;SDS011;55778;54.346;10.210;2023-10-19T08:50:24;8.20;;;3.55;;
68792;SDS011;55778;54.346;10.210;2023-10-19T08:52:58;10.63;;;4.20;;
68792;SDS011;55778;54.346;10.210;2023-10-19T08:55:24;10.98;;;4.10;;
68792;SDS011;55778;54.346;10.210;2023-10-19T08:57:51;7.80;;;4.20;;
68792;SDS011;55778;54.346;10.210;2023-10-19T09:00:17;8.77;;;4.00;;
68792;SDS011;55778;54.346;10.210;2023-10-19T09:02:46;8.00;;;4.00;;
68792;SDS011;55778;54.346;10.210;2023-10-19T09:05:12;7.65;;;4.10;;
68792;SDS011;55778;54.346;10.210;2023-10-19T09:07:48;8.50;;;3.75;;
68792;SDS011;55778;54.346;10.210;2023-10-19T09:10:21;8.63;;;4.00;;
68792;SDS011;55778;54.346;10.210;2023-10-19T09:13:04;10.48;;;4.32;;
68792;SDS011;55778;54.346;10.210;2023-10-19T09:15:34;8.38;;;4.25;;
68792;SDS011;55778;54.346;10.210;2023-10-19T09:18:13;8.73;;;4.68;;
68792;SDS011;55778;54.346;10.210;2023-10-19T09:20:42;9.10;;;4.20;;
68792;SDS011;55778;54.346;10.210;2023-10-19T09:23:27;8.65;;;4.40;;
68792;SDS011;55778;54.346;10.210;2023-10-19T09:25:56;9.02;;;4.25;;
68792;SDS011;55778;54.346;10.210;2023-10-19T09:28:23;9.15;;;4.95;;
68792;SDS011;55778;54.346;10.210;2023-10-19T09:30:49;7.03;;;4.47;;
68792;SDS011;55778;54.346;10.210;2023-10-19T09:33:16;9.60;;;4.78;;
68792;SDS011;55778;54.346;10.210;2023-10-19T09:35:46;13.00;;;4.88;;
68792;SDS011;55778;54.346;10.210;2023-10-19T09:38:17;11.57;;;4.65;;
68792;SDS011;55778;54.346;10.210;2023-10-19T09:40:53;10.82;;;5.07;;
68792;SDS011;55778;54.346;10.210;2023-10-19T09:43:42;10.63;;;5.10;;
68792;SDS011;55778;54.346;10.210;2023-10-19T09:46:10;11.90;;;4.80;;
68792;SDS011;55778;54.346;10.210;2023-10-19T09:48:41;12.25;;;5.10;;
68792;SDS011;55778;54.346;10.210;2023-10-19T09:51:07;10.48;;;4.88;;
68792;SDS011;55778;54.346;10.210;2023-10-19T09:53:34;11.15;;;5.28;;
68792;SDS011;55778;54.346;10.210;2023-10-19T09:56:03;11.05;;;5.10;;
68792;SDS011;55778;54.346;10.210;2023-10-19T09:58:33;9.80;;;5.27;;
68792;SDS011;55778;54.346;10.210;2023-10-19T10:01:13;11.07;;;5.13;;
68792;SDS011;55778;54.346;10.210;2023-10-19T10:06:17;11.18;;;5.35;;
68792;SDS011;55778;54.346;10.210;2023-10-19T10:08:52;11.23;;;5.13;;
68792;SDS011;55778;54.346;10.210;2023-10-19T10:11:22;13.27;;;5.50;;
68792;SDS011;55778;54.346;10.210;2023-10-19T10:13:49;9.20;;;4.70;;
68792;SDS011;55778;54.346;10.210;2023-10-19T10:16:16;11.07;;;5.03;;
68792;SDS011;55778;54.346;10.210;2023-10-19T10:18:47;10.60;;;5.05;;
68792;SDS011;55778;54.346;10.210;2023-10-19T10:21:20;9.07;;;4.60;;
68792;SDS011;55778;54.346;10.210;2023-10-19T10:23:50;9.27;;;5.43;;
68792;SDS011;55778;54.346;10.210;2023-10-19T10:26:18;11.77;;;5.07;;
68792;SDS011;55778;54.346;10.210;2023-10-19T10:28:46;9.55;;;5.30;;
68792;SDS011;55778;54.346;10.210;2023-10-19T10:31:34;12.52;;;5.20;;
68792;SDS011;55778;54.346;10.210;2023-10-19T10:34:05;9.10;;;4.75;;
68792;SDS011;55778;54.346;10.210;2023-10-19T10:39:27;14.52;;;5.30;;
68792;SDS011;55778;54.346;10.210;2023-10-19T10:42:00;12.10;;;4.78;;
68792;SDS011;55778;54.346;10.210;2023-10-19T10:47:10;8.63;;;4.65;;
68792;SDS011;55778;54.346;10.210;2023-10-19T10:49:48;13.18;;;5.38;;
68792;SDS011;55778;54.346;10.210;2023-10-19T10:52:35;12.18;;;5.57;;
68792;SDS011;55778;54.346;10.210;2023-10-19T10:55:10;12.20;;;5.07;;
68792;SDS011;55778;54.346;10.210;2023-10-19T10:57:36;13.15;;;4.97;;
68792;SDS011;55778;54.346;10.210;2023-10-19T11:00:09;12.07;;;5.18;;
68792;SDS011;55778;54.346;10.210;2023-10-19T11:02:43;8.65;;;4.75;;
68792;SDS011;55778;54.346;10.210;2023-10-19T11:05:11;10.98;;;5.22;;
68792;SDS011;55778;54.346;10.210;2023-10-19T11:07:40;10.88;;;5.47;;
68792;SDS011;55778;54.346;10.210;2023-10-19T11:12:35;10.45;;;5.10;;
68792;SDS011;55778;54.346;10.210;2023-10-19T11:15:01;10.48;;;5.00;;
68792;SDS011;55778;54.346;10.210;2023-10-19T11:17:41;13.70;;;5.68;;
68792;SDS011;55778;54.346;10.210;2023-10-19T11:20:07;12.57;;;5.32;;
68792;SDS011;55778;54.346;10.210;2023-10-19T11:22:44;13.90;;;5.95;;
68792;SDS011;55778;54.346;10.210;2023-10-19T11:25:17;11.32;;;5.88;;
68792;SDS011;55778;54.346;10.210;2023-10-19T11:27:43;11.73;;;5.63;;
68792;SDS011;55778;54.346;10.210;2023-10-19T11:30:09;13.48;;;5.90;;
68792;SDS011;55778;54.346;10.210;2023-10-19T11:32:37;10.32;;;5.60;;
68792;SDS011;55778;54.346;10.210;2023-10-19T11:35:03;11.55;;;6.13;;
68792;SDS011;55778;54.346;10.210;2023-10-19T11:37:29;13.40;;;5.68;;
68792;SDS011;55778;54.346;10.210;2023-10-19T11:39:54;13.10;;;5.47;;
68792;SDS011;55778;54.346;10.210;2023-10-19T11:42:20;11.90;;;5.70;;
68792;SDS011;55778;54.346;10.210;2023-10-19T11:44:45;12.35;;;6.13;;
68792;SDS011;55778;54.346;10.210;2023-10-19T11:47:11;11.85;;;5.50;;
68792;SDS011;55778;54.346;10.210;2023-10-19T11:49:38;12.55;;;6.35;;
68792;SDS011;55778;54.346;10.210;2023-10-19T11:52:04;12.60;;;6.28;;
68792;SDS011;55778;54.346;10.210;2023-10-19T11:54:33;11.55;;;5.95;;
68792;SDS011;55778;54.346;10.210;2023-10-19T11:56:59;15.40;;;6.28;;
68792;SDS011;55778;54.346;10.210;2023-10-19T11:59:25;13.02;;;6.18;;
68792;SDS011;55778;54.346;10.210;2023-10-19T12:01:51;14.05;;;6.40;;
68792;SDS011;55778;54.346;10.210;2023-10-19T12:04:17;14.40;;;6.05;;
68792;SDS011;55778;54.346;10.210;2023-10-19T12:06:43;11.90;;;6.72;;
68792;SDS011;55778;54.346;10.210;2023-10-19T12:09:08;14.90;;;6.50;;
68792;SDS011;55778;54.346;10.210;2023-10-19T12:11:40;12.82;;;6.28;;
68792;SDS011;55778;54.346;10.210;2023-10-19T12:14:06;11.40;;;6.47;;
68792;SDS011;55778;54.346;10.210;2023-10-19T12:16:36;17.00;;;6.75;;
68792;SDS011;55778;54.346;10.210;2023-10-19T12:19:01;14.52;;;7.20;;
68792;SDS011;55778;54.346;10.210;2023-10-19T12:21:28;15.52;;;7.30;;
68792;SDS011;55778;54.346;10.210;2023-10-19T12:23:55;14.40;;;6.60;;
68792;SDS011;55778;54.346;10.210;2023-10-19T12:26:21;14.48;;;6.93;;
68792;SDS011;55778;54.346;10.210;2023-10-19T12:28:48;14.13;;;6.60;;
68792;SDS011;55778;54.346;10.210;2023-10-19T12:31:14;17.17;;;7.18;;
68792;SDS011;55778;54.346;10.210;2023-10-19T12:33:40;12.63;;;6.85;;
68792;SDS011;55778;54.346;10.210;2023-10-19T12:36:07;16.88;;;7.05;;
68792;SDS011;55778;54.346;10.210;2023-10-19T12:38:51;16.40;;;7.65;;
68792;SDS011;55778;54.346;10.210;2023-10-19T12:41:18;15.43;;;7.18;;
68792;SDS011;55778;54.346;10.210;2023-10-19T12:43:44;17.30;;;8.15;;
68792;SDS011;55778;54.346;10.210;2023-10-19T12:46:11;16.42;;;7.57;;
68792;SDS011;55778;54.346;10.210;2023-10-19T12:48:38;18.38;;;7.85;;
68792;SDS011;55778;54.346;10.210;2023-10-19T12:51:04;15.30;;;7.18;;
68792;SDS011;55778;54.346;10.210;2023-10-19T12:53:32;14.65;;;7.53;;
68792;SDS011;55778;54.346;10.210;2023-10-19T12:55:58;19.92;;;7.80;;
68792;SDS011;55778;54.346;10.210;2023-10-19T12:58:24;14.07;;;7.50;;
68792;SDS011;55778;54.346;10.210;2023-10-19T13:00:52;12.35;;;7.07;;
68792;SDS011;55778;54.346;10.210;2023-10-19T13:03:19;15.75;;;7.30;;
68792;SDS011;55778;54.346;10.210;2023-10-19T13:05:47;14.65;;;7.30;;
68792;SDS011;55778;54.346;10.210;2023-10-19T13:08:14;15.93;;;7.72;;
68792;SDS011;55778;54.346;10.210;2023-10-19T13:10:44;14.20;;;7.25;;
68792;SDS011;55778;54.346;10.210;2023-10-19T13:13:14;19.48;;;7.47;;
68792;SDS011;55778;54.346;10.210;2023-10-19T13:15:41;18.60;;;7.30;;
68792;SDS011;55778;54.346;10.210;2023-10-19T13:18:09;14.23;;;6.78;;
68792;SDS011;55778;54.346;10.210;2023-10-19T13:20:36;13.80;;;6.65;;
68792;SDS011;55778;54.346;10.210;2023-10-19T13:23:04;10.38;;;5.75;;
68792;SDS011;55778;54.346;10.210;2023-10-19T13:25:32;12.95;;;6.30;;
68792;SDS011;55778;54.346;10.210;2023-10-19T13:28:13;16.08;;;6.65;;
68792;SDS011;55778;54.346;10.210;2023-10-19T13:30:45;13.60;;;6.28;;
68792;SDS011;55778;54.346;10.210;2023-10-19T13:33:12;15.35;;;6.50;;
68792;SDS011;55778;54.346;10.210;2023-10-19T13:35:39;13.00;;;5.90;;
68792;SDS011;55778;54.346;10.210;2023-10-19T13:38:05;14.25;;;6.22;;
68792;SDS011;55778;54.346;10.210;2023-10-19T13:40:33;12.57;;;6.80;;
68792;SDS011;55778;54.346;10.210;2023-10-19T13:42:59;14.88;;;6.45;;
68792;SDS011;55778;54.346;10.210;2023-10-19T13:45:25;13.23;;;6.28;;
68792;SDS011;55778;54.346;10.210;2023-10-19T13:47:51;10.95;;;5.68;;
68792;SDS011;55778;54.346;10.210;2023-10-19T13:50:22;12.52;;;6.28;;
68792;SDS011;55778;54.346;10.210;2023-10-19T13:52:58;16.70;;;5.70;;
68792;SDS011;55778;54.346;10.210;2023-10-19T13:55:25;12.85;;;5.95;;
68792;SDS011;55778;54.346;10.210;2023-10-19T13:57:52;11.77;;;6.10;;
68792;SDS011;55778;54.346;10.210;2023-10-19T14:00:18;11.50;;;5.80;;
68792;SDS011;55778;54.346;10.210;2023-10-19T14:02:49;12.80;;;5.60;;
68792;SDS011;55778;54.346;10.210;2023-10-19T14:05:15;12.13;;;6.13;;
68792;SDS011;55778;54.346;10.210;2023-10-19T14:07:41;12.80;;;5.80;;
68792;SDS011;55778;54.346;10.210;2023-10-19T14:10:07;10.60;;;5.93;;
68792;SDS011;55778;54.346;10.210;2023-10-19T14:12:37;11.95;;;6.20;;
68792;SDS011;55778;54.346;10.210;2023-10-19T14:15:02;13.52;;;5.70;;
68792;SDS011;55778;54.346;10.210;2023-10-19T14:17:28;13.05;;;6.05;;
68792;SDS011;55778;54.346;10.210;2023-10-19T14:19:55;12.98;;;5.75;;
68792;SDS011;55778;54.346;10.210;2023-10-19T14:22:20;15.88;;;5.88;;
68792;SDS011;55778;54.346;10.210;2023-10-19T14:24:45;13.98;;;6.30;;
68792;SDS011;55778;54.346;10.210;2023-10-19T14:27:11;14.75;;;6.05;;
68792;SDS011;55778;54.346;10.210;2023-10-19T14:29:36;14.27;;;6.28;;
68792;SDS011;55778;54.346;10.210;2023-10-19T14:32:02;11.73;;;6.07;;
68792;SDS011;55778;54.346;10.210;2023-10-19T14:34:28;15.85;;;6.65;;
68792;SDS011;55778;54.346;10.210;2023-10-19T14:36:53;13.75;;;6.30;;
68792;SDS011;55778;54.346;10.210;2023-10-19T14:39:19;11.90;;;6.80;;
68792;SDS011;55778;54.346;10.210;2023-10-19T14:41:45;12.45;;;6.65;;
68792;SDS011;55778;54.346;10.210;2023-10-19T14:44:11;13.35;;;6.40;;
68792;SDS011;55778;54.346;10.210;2023-10-19T14:46:36;12.25;;;6.68;;
68792;SDS011;55778;54.346;10.210;2023-10-19T14:49:02;13.40;;;6.65;;
68792;SDS011;55778;54.346;10.210;2023-10-19T14:51:27;15.05;;;6.75;;